Time;durP1;ratioP1;P1;durP2;ratioP2;P2;SDS_P1;SDS_P2;PMS_P1;PMS_P2;Temp;Humidity;BMP_temperature;BMP_pressure;BME280_temperature;BME280_humidity;BME280_pressure;Samples;Min_cycle;Max_cycle;Signal;HPM_P1;HPM_P2
2021/05/06 00:02:13;;;;;;;2.90;2.13;;;8.30;99.90;;;;;;5054224;28;20441;-49
2021/05/06 00:07:48;;;;;;;10.80;2.90;;;8.30;99.90;;;;;;5062496;28;20568;-49
2021/05/06 00:30:00;;;;;;;2.13;1.93;;;8.10;99.90;;;;;;5072721;28;20418;-49
2021/05/06 00:32:27;;;;;;;2.20;2.00;;;8.10;99.90;;;;;;5072592;28;21014;-49
2021/05/06 00:34:54;;;;;;;2.27;1.83;;;8.10;99.90;;;;;;5072612;28;20806;-49
2021/05/06 00:37:22;;;;;;;2.70;2.13;;;8.30;99.90;;;;;;5072230;28;20853;-49
2021/05/06 00:39:52;;;;;;;5.13;2.30;;;8.40;99.90;;;;;;5072425;28;20451;-49
2021/05/06 00:42:30;;;;;;;3.33;2.53;;;8.50;99.90;;;;;;5072211;28;20471;-49
2021/05/06 00:56:42;;;;;;;2.43;2.17;;;8.40;99.90;;;;;;5046018;28;20658;-48
2021/05/06 01:04:48;;;;;;;3.63;2.40;;;8.40;99.90;;;;;;5071203;28;20505;-49
2021/05/06 01:10:12;;;;;;;2.93;2.47;;;8.30;99.90;;;;;;5071548;28;20437;-49
2021/05/06 01:12:41;;;;;;;6.03;2.60;;;8.20;99.90;;;;;;5071842;28;20489;-48
2021/05/06 01:15:08;;;;;;;5.97;2.60;;;8.10;99.90;;;;;;5071584;28;20469;-48
2021/05/06 01:17:35;;;;;;;3.60;2.90;;;8.20;99.90;;;;;;5071343;28;20970;-48
2021/05/06 01:20:01;;;;;;;3.33;2.63;;;8.20;99.90;;;;;;5071829;28;20446;-49
2021/05/06 01:22:29;;;;;;;2.80;2.50;;;8.30;99.90;;;;;;5071000;28;20459;-49
2021/05/06 01:24:57;;;;;;;4.23;2.40;;;8.30;99.90;;;;;;5071176;28;20948;-49
2021/05/06 01:27:32;;;;;;;3.67;2.40;;;8.40;99.90;;;;;;5071164;28;21040;-49
2021/05/06 01:30:06;;;;;;;2.50;2.00;;;8.50;99.90;;;;;;5071629;28;20519;-49
2021/05/06 01:32:37;;;;;;;3.33;2.53;;;8.40;99.90;;;;;;5071637;28;20470;-50
2021/05/06 01:35:07;;;;;;;6.20;2.20;;;8.30;99.90;;;;;;5070632;28;20975;-49
2021/05/06 01:37:40;;;;;;;5.23;2.33;;;8.20;99.90;;;;;;5071680;28;20478;-50
2021/05/06 01:40:29;;;;;;;3.13;1.80;;;8.20;99.90;;;;;;5071307;28;20530;-49
2021/05/06 01:42:59;;;;;;;4.33;2.63;;;8.40;99.90;;;;;;5071685;28;20474;-49
2021/05/06 01:45:50;;;;;;;4.60;2.30;;;8.60;99.90;;;;;;5071271;28;20447;-48
2021/05/06 01:48:35;;;;;;;3.27;1.80;;;8.40;99.90;;;;;;5070828;28;20451;-48
2021/05/06 01:51:25;;;;;;;2.73;2.07;;;8.50;99.90;;;;;;5064667;28;20567;-49
2021/05/06 01:59:25;;;;;;;2.30;2.10;;;8.30;99.90;;;;;;5070993;28;20581;-48
2021/05/06 02:01:52;;;;;;;6.07;2.37;;;8.30;99.90;;;;;;5074202;28;20469;-48
2021/05/06 02:04:18;;;;;;;2.40;2.07;;;8.40;99.90;;;;;;5074408;28;20454;-48
2021/05/06 02:06:47;;;;;;;3.43;2.10;;;8.40;99.90;;;;;;5075454;28;20441;-49
2021/05/06 02:09:14;;;;;;;4.40;2.70;;;8.40;99.90;;;;;;5075615;28;20456;-48
2021/05/06 02:11:40;;;;;;;3.27;2.23;;;8.40;99.90;;;;;;5075307;28;20485;-48
2021/05/06 02:14:08;;;;;;;2.20;1.83;;;8.50;99.90;;;;;;5075256;28;20951;-48
2021/05/06 02:16:37;;;;;;;2.97;2.20;;;8.40;99.90;;;;;;5074589;28;20481;-48
2021/05/06 02:19:05;;;;;;;3.47;2.30;;;8.30;99.90;;;;;;5075145;28;20458;-48
2021/05/06 02:21:31;;;;;;;2.73;2.30;;;8.40;99.90;;;;;;5075137;28;21018;-48
2021/05/06 02:44:11;;;;;;;7.87;2.57;;;8.30;99.90;;;;;;5074633;28;20860;-48
2021/05/06 02:46:37;;;;;;;2.93;2.20;;;8.20;99.90;;;;;;5074352;28;20468;-48
2021/05/06 02:49:04;;;;;;;2.77;2.30;;;8.20;99.90;;;;;;5074315;28;20443;-48
2021/05/06 02:51:34;;;;;;;4.40;2.50;;;8.20;99.90;;;;;;5074596;28;20850;-48
2021/05/06 02:54:01;;;;;;;5.70;2.20;;;8.30;99.90;;;;;;5073902;28;20519;-49
2021/05/06 02:56:32;;;;;;;5.63;2.40;;;8.30;99.90;;;;;;5061561;28;20481;-49
2021/05/06 02:59:11;;;;;;;6.77;2.13;;;8.20;99.90;;;;;;5074344;28;20458;-49
2021/05/06 03:04:23;;;;;;;3.27;2.77;;;8.30;99.90;;;;;;5054400;28;20956;-48
2021/05/06 03:06:53;;;;;;;6.60;2.93;;;8.30;99.90;;;;;;5059726;28;20869;-48
2021/05/06 03:09:37;;;;;;;4.47;2.43;;;8.40;99.90;;;;;;5074196;28;20451;-48
2021/05/06 03:12:22;;;;;;;5.90;2.70;;;8.30;99.90;;;;;;5073087;28;20578;-48
2021/05/06 03:15:05;;;;;;;2.63;2.10;;;8.30;99.90;;;;;;5073533;28;21057;-48
2021/05/06 03:23:01;;;;;;;3.17;1.90;;;8.50;99.90;;;;;;5073222;28;20442;-48
2021/05/06 03:25:29;;;;;;;3.30;2.10;;;8.40;99.90;;;;;;5073522;28;20457;-48
2021/05/06 03:27:58;;;;;;;2.50;2.10;;;8.20;99.90;;;;;;5074068;28;20459;-48
2021/05/06 03:30:37;;;;;;;5.83;2.00;;;8.10;99.90;;;;;;5073639;28;20455;-48
2021/05/06 03:44:15;;;;;;;6.53;2.67;;;7.90;99.90;;;;;;5062210;28;20510;-48
2021/05/06 03:47:01;;;;;;;4.50;2.63;;;7.90;99.90;;;;;;5053662;28;20446;-49
2021/05/06 04:03:38;;;;;;;6.93;2.50;;;7.90;99.90;;;;;;5039470;28;20504;-47
2021/05/06 04:17:11;;;;;;;4.87;2.40;;;8.30;99.90;;;;;;5053126;28;20604;-54
2021/05/06 04:27:55;;;;;;;3.67;2.87;;;8.20;99.90;;;;;;5052878;28;20435;-52
2021/05/06 04:30:41;;;;;;;4.20;2.37;;;8.30;99.90;;;;;;5053126;28;20949;-54
2021/05/06 04:35:55;;;;;;;4.20;2.10;;;8.10;99.90;;;;;;5052648;28;20470;-53
2021/05/06 04:38:23;;;;;;;3.07;2.20;;;8.10;99.90;;;;;;5052830;28;20452;-53
2021/05/06 04:41:09;;;;;;;4.17;2.20;;;8.20;99.90;;;;;;5052527;28;20455;-53
2021/05/06 04:54:35;;;;;;;5.63;2.13;;;8.30;99.90;;;;;;5034304;28;21013;-53
2021/05/06 05:05:14;;;;;;;4.93;2.60;;;8.40;99.90;;;;;;5036258;28;20518;-53
2021/05/06 05:07:44;;;;;;;3.37;2.20;;;8.60;99.90;;;;;;5032532;28;20875;-52
2021/05/06 05:10:29;;;;;;;3.10;2.20;;;8.50;99.90;;;;;;5032246;28;20445;-53
2021/05/06 05:18:34;;;;;;;4.93;2.43;;;8.50;99.90;;;;;;5050784;28;20507;-53
2021/05/06 05:21:19;;;;;;;2.70;2.10;;;8.60;99.90;;;;;;5052068;28;20891;-53
2021/05/06 05:23:47;;;;;;;3.37;2.10;;;8.50;99.90;;;;;;5050650;28;21022;-53
2021/05/06 05:26:14;;;;;;;8.07;3.00;;;8.60;99.90;;;;;;5051753;28;20444;-53
2021/05/06 05:28:42;;;;;;;6.40;2.40;;;8.70;99.90;;;;;;5031984;28;20455;-53
2021/05/06 05:31:08;;;;;;;3.47;2.57;;;8.80;99.90;;;;;;5038020;28;20467;-53
2021/05/06 05:33:39;;;;;;;4.20;2.60;;;8.90;99.90;;;;;;5051798;28;20824;-53
2021/05/06 05:36:15;;;;;;;5.40;2.60;;;8.80;99.90;;;;;;5051258;28;20541;-53
2021/05/06 05:38:49;;;;;;;4.70;1.90;;;8.90;99.90;;;;;;5051600;28;20466;-53
2021/05/06 05:55:03;;;;;;;7.47;2.80;;;9.20;99.90;;;;;;5050745;28;20500;-52
2021/05/06 05:57:30;;;;;;;3.13;2.77;;;9.40;99.90;;;;;;5051386;28;20488;-53
2021/05/06 05:59:56;;;;;;;4.50;2.73;;;9.40;99.90;;;;;;5051571;28;20501;-53
2021/05/06 06:02:23;;;;;;;4.63;2.40;;;9.40;99.90;;;;;;5051340;28;20460;-53
2021/05/06 06:04:49;;;;;;;4.00;2.87;;;9.60;99.90;;;;;;5050599;28;20456;-53
2021/05/06 06:07:16;;;;;;;4.03;2.83;;;9.70;99.90;;;;;;5051147;28;20447;-53
2021/05/06 06:09:43;;;;;;;3.57;2.80;;;9.60;99.90;;;;;;5049814;28;20543;-53
2021/05/06 06:12:09;;;;;;;8.00;2.67;;;9.50;99.90;;;;;;5045481;28;20480;-54
2021/05/06 06:14:47;;;;;;;7.80;2.60;;;9.50;99.90;;;;;;5043441;28;20451;-54
2021/05/06 06:21:28;;;;;;;4.90;2.30;;;9.60;99.90;;;;;;5044027;28;20413;-53
2021/05/06 06:23:55;;;;;;;4.17;2.80;;;9.60;99.90;;;;;;5048668;28;20502;-53
2021/05/06 06:26:22;;;;;;;3.30;2.60;;;9.80;99.90;;;;;;5033772;28;20448;-53
2021/05/06 06:28:50;;;;;;;4.17;2.70;;;9.80;99.90;;;;;;5047709;28;20448;-53
2021/05/06 06:31:20;;;;;;;3.83;2.57;;;9.90;99.90;;;;;;5053414;28;21019;-53
2021/05/06 06:33:47;;;;;;;12.07;2.73;;;10.00;99.90;;;;;;5053962;28;20443;-53
2021/05/06 06:36:15;;;;;;;3.53;2.53;;;10.00;99.90;;;;;;5052524;28;20487;-53
2021/05/06 06:38:42;;;;;;;3.07;2.77;;;10.00;99.90;;;;;;5048252;28;20459;-53
2021/05/06 06:41:09;;;;;;;6.33;2.60;;;10.10;99.90;;;;;;5043901;28;20461;-52
2021/05/06 06:43:36;;;;;;;4.33;2.10;;;10.10;99.90;;;;;;5032410;28;20455;-53
2021/05/06 06:46:04;;;;;;;3.77;2.50;;;10.30;99.90;;;;;;5050043;28;20447;-53
2021/05/06 06:48:32;;;;;;;3.33;2.30;;;10.20;99.90;;;;;;5053547;28;20470;-52
2021/05/06 06:50:58;;;;;;;4.53;2.33;;;10.10;99.90;;;;;;5054725;28;20953;-53
2021/05/06 06:53:25;;;;;;;3.83;2.00;;;10.30;99.90;;;;;;5054488;28;20447;-53
2021/05/06 06:55:51;;;;;;;3.13;2.27;;;10.50;99.90;;;;;;5054540;28;20479;-52
2021/05/06 06:58:18;;;;;;;3.73;2.77;;;10.50;99.90;;;;;;5054986;28;20464;-53
2021/05/06 07:00:46;;;;;;;6.80;2.30;;;10.70;99.90;;;;;;5054292;28;20464;-53
2021/05/06 07:03:13;;;;;;;1.83;1.73;;;10.70;99.90;;;;;;5053899;28;20447;-53
2021/05/06 07:05:41;;;;;;;3.50;1.70;;;10.70;99.90;;;;;;5036833;28;20495;-52
2021/05/06 07:08:15;;;;;;;2.67;1.80;;;11.00;99.90;;;;;;5044529;28;20949;-53
2021/05/06 07:10:44;;;;;;;2.30;2.10;;;11.30;99.90;;;;;;5049003;28;20459;-53
2021/05/06 07:13:10;;;;;;;2.13;1.73;;;11.50;99.90;;;;;;5050800;28;20468;-53
2021/05/06 07:15:37;;;;;;;4.03;1.77;;;11.60;99.90;;;;;;5042669;28;20494;-53
2021/05/06 07:18:04;;;;;;;2.10;1.83;;;11.80;99.90;;;;;;5046149;28;20463;-53
2021/05/06 07:20:30;;;;;;;4.03;1.57;;;12.00;99.90;;;;;;5047037;28;21148;-53
2021/05/06 07:22:58;;;;;;;3.00;1.57;;;12.40;99.90;;;;;;5052997;28;20481;-53
2021/05/06 07:25:24;;;;;;;2.20;1.50;;;12.60;99.90;;;;;;5054053;28;20444;-53
2021/05/06 07:27:51;;;;;;;2.80;1.60;;;13.00;99.90;;;;;;5050164;28;20901;-53
2021/05/06 07:30:18;;;;;;;2.97;1.63;;;12.80;99.90;;;;;;5036536;28;20445;-53
2021/05/06 07:32:45;;;;;;;6.70;1.60;;;12.50;99.90;;;;;;5042628;28;20467;-53
2021/05/06 07:35:12;;;;;;;4.70;1.83;;;12.20;99.90;;;;;;5049956;28;20447;-53
2021/05/06 07:37:39;;;;;;;3.40;2.00;;;12.20;99.90;;;;;;5053659;28;20286;-53
2021/05/06 07:40:08;;;;;;;2.67;1.53;;;12.40;99.90;;;;;;5053834;28;20452;-53
2021/05/06 07:42:35;;;;;;;2.50;2.00;;;12.70;99.90;;;;;;5053494;28;20521;-53
2021/05/06 07:45:02;;;;;;;2.83;1.60;;;13.00;99.90;;;;;;5052993;28;20486;-53
2021/05/06 07:47:28;;;;;;;2.33;2.00;;;13.60;99.90;;;;;;5053469;28;20815;-53
2021/05/06 07:49:55;;;;;;;3.83;1.80;;;13.90;99.90;;;;;;5053118;28;21127;-54
2021/05/06 07:52:22;;;;;;;2.37;1.70;;;13.90;99.90;;;;;;5053479;28;20467;-54
2021/05/06 07:54:49;;;;;;;2.93;2.40;;;13.80;99.90;;;;;;5053123;28;20479;-53
2021/05/06 07:57:16;;;;;;;1.93;1.70;;;13.80;99.90;;;;;;5053244;28;20855;-54
2021/05/06 07:59:43;;;;;;;1.60;1.37;;;13.80;99.90;;;;;;5053092;28;21052;-53
2021/05/06 08:02:11;;;;;;;2.87;1.30;;;14.00;99.90;;;;;;5053124;28;20476;-55
2021/05/06 08:04:37;;;;;;;3.00;1.37;;;14.20;99.90;;;;;;5052920;28;20505;-54
2021/05/06 08:07:04;;;;;;;1.73;1.63;;;14.30;99.90;;;;;;5053395;28;20448;-54
2021/05/06 08:09:31;;;;;;;1.97;1.73;;;13.80;99.90;;;;;;5053251;28;20451;-54
2021/05/06 08:12:00;;;;;;;3.73;1.77;;;13.70;99.90;;;;;;5053054;28;20541;-54
2021/05/06 08:14:27;;;;;;;2.30;1.40;;;13.40;99.90;;;;;;5052702;28;20977;-54
2021/05/06 08:16:54;;;;;;;1.63;1.53;;;13.50;99.90;;;;;;5052357;28;20913;-54
2021/05/06 08:19:21;;;;;;;4.57;2.10;;;13.40;99.90;;;;;;5056521;28;20811;-54
2021/05/06 08:21:48;;;;;;;1.47;1.37;;;13.10;99.90;;;;;;5053352;28;20991;-53
2021/05/06 08:24:15;;;;;;;2.90;1.43;;;12.90;99.90;;;;;;5052861;28;20506;-53
2021/05/06 08:26:41;;;;;;;2.53;1.87;;;12.80;99.90;;;;;;5052983;28;20454;-54
2021/05/06 08:29:08;;;;;;;1.30;1.20;;;12.60;99.90;;;;;;5052725;28;20451;-53
2021/05/06 08:31:35;;;;;;;1.73;1.43;;;12.80;99.90;;;;;;5052553;28;20471;-54
2021/05/06 08:34:02;;;;;;;3.10;1.73;;;13.00;99.90;;;;;;5052685;28;20493;-54
2021/05/06 08:36:29;;;;;;;3.00;1.70;;;13.20;99.90;;;;;;5052490;28;20483;-54
2021/05/06 08:38:55;;;;;;;2.60;1.57;;;13.20;99.90;;;;;;5052623;28;20513;-54
2021/05/06 08:41:22;;;;;;;3.00;1.43;;;13.00;99.90;;;;;;5052458;28;20471;-54
2021/05/06 08:43:53;;;;;;;3.30;1.67;;;13.00;99.90;;;;;;5052176;28;20578;-54
2021/05/06 08:46:20;;;;;;;2.63;2.03;;;12.90;99.90;;;;;;5052213;28;20547;-54
2021/05/06 08:48:48;;;;;;;2.40;1.70;;;12.90;99.90;;;;;;5049026;28;20448;-53
2021/05/06 08:51:15;;;;;;;2.40;1.73;;;12.90;99.90;;;;;;5052476;28;20521;-53
2021/05/06 08:53:44;;;;;;;5.23;1.80;;;13.00;99.90;;;;;;5051922;28;20454;-53
2021/05/06 08:56:10;;;;;;;2.17;1.70;;;12.90;99.90;;;;;;5051998;28;20487;-54
2021/05/06 08:58:37;;;;;;;2.37;1.83;;;12.60;99.90;;;;;;5052012;28;20459;-54
2021/05/06 09:01:04;;;;;;;3.47;1.50;;;12.60;99.90;;;;;;5052119;28;20499;-54
2021/05/06 09:03:30;;;;;;;2.90;2.10;;;12.60;99.90;;;;;;5051934;28;20450;-54
2021/05/06 09:06:12;;;;;;;2.90;2.00;;;12.70;99.90;;;;;;5052284;28;20452;-54
2021/05/06 09:08:40;;;;;;;3.00;2.30;;;12.70;99.90;;;;;;5052065;28;20452;-54
2021/05/06 09:11:07;;;;;;;3.63;2.00;;;12.90;99.90;;;;;;5051118;28;20448;-53
2021/05/06 09:13:34;;;;;;;2.50;2.13;;;12.90;99.90;;;;;;5052000;28;20446;-53
2021/05/06 09:16:01;;;;;;;3.37;2.03;;;12.60;99.90;;;;;;5051559;28;21292;-53
2021/05/06 09:18:35;;;;;;;2.40;1.57;;;12.70;99.90;;;;;;5051945;28;20459;-53
2021/05/06 09:21:02;;;;;;;2.27;1.60;;;12.90;99.90;;;;;;5051785;28;20452;-54
2021/05/06 09:23:30;;;;;;;4.03;2.17;;;12.70;99.90;;;;;;5050701;28;20497;-54
2021/05/06 09:26:01;;;;;;;2.30;1.80;;;12.80;99.90;;;;;;5031877;28;20444;-54
2021/05/06 09:28:30;;;;;;;3.27;2.30;;;12.90;99.90;;;;;;5031954;28;20447;-54
2021/05/06 09:30:59;;;;;;;4.10;1.80;;;13.00;99.90;;;;;;5031598;28;20452;-54
2021/05/06 09:33:31;;;;;;;1.93;1.77;;;13.00;99.90;;;;;;5039323;28;20448;-54
2021/05/06 09:36:08;;;;;;;4.40;2.50;;;13.00;99.90;;;;;;5052141;28;20487;-55
2021/05/06 09:38:37;;;;;;;2.00;1.73;;;13.00;99.90;;;;;;5051703;28;20443;-55
2021/05/06 09:41:05;;;;;;;3.53;1.70;;;13.10;99.90;;;;;;5051419;28;20456;-55
2021/05/06 09:43:38;;;;;;;2.97;1.50;;;13.20;99.90;;;;;;5051511;28;20509;-54
2021/05/06 09:46:04;;;;;;;2.60;1.90;;;13.20;99.90;;;;;;5051027;28;20559;-55
2021/05/06 09:48:31;;;;;;;4.00;1.83;;;13.20;99.90;;;;;;5051206;28;20455;-55
2021/05/06 09:51:01;;;;;;;3.00;1.70;;;13.20;99.90;;;;;;5051612;28;20448;-55
2021/05/06 09:53:31;;;;;;;2.57;1.70;;;13.30;99.90;;;;;;5051395;28;21020;-55
2021/05/06 09:56:01;;;;;;;1.83;1.70;;;13.30;99.90;;;;;;5051079;28;20479;-55
2021/05/06 09:58:31;;;;;;;3.50;1.60;;;13.20;99.90;;;;;;5051380;28;20451;-55
2021/05/06 10:00:58;;;;;;;4.73;1.87;;;13.30;99.90;;;;;;5051078;28;20451;-55
2021/05/06 10:03:35;;;;;;;4.43;1.50;;;13.40;99.90;;;;;;5051527;28;20861;-55
2021/05/06 10:06:12;;;;;;;3.10;1.67;;;13.50;99.90;;;;;;5050054;28;20451;-55
2021/05/06 10:08:39;;;;;;;5.30;2.93;;;13.30;99.90;;;;;;5051780;28;20454;-54
2021/05/06 10:13:36;;;;;;;2.70;1.50;;;13.20;99.90;;;;;;5073943;22;20498;-49
2021/05/06 10:16:03;;;;;;;3.73;1.67;;;13.20;99.90;;;;;;5066733;28;20461;-49
2021/05/06 10:18:30;;;;;;;3.13;1.73;;;13.50;99.90;;;;;;5071081;28;20473;-49
2021/05/06 10:20:56;;;;;;;2.77;1.20;;;13.70;99.90;;;;;;5071274;28;20454;-48
2021/05/06 10:23:24;;;;;;;1.63;1.50;;;13.90;99.90;;;;;;5055544;28;20471;-48
2021/05/06 10:25:54;;;;;;;2.83;1.30;;;14.10;99.90;;;;;;5054620;28;20448;-48
2021/05/06 10:28:23;;;;;;;4.87;3.50;;;14.40;99.90;;;;;;5054291;28;20530;-48
2021/05/06 10:30:50;;;;;;;1.97;1.30;;;14.40;99.90;;;;;;5053547;28;20531;-47
2021/05/06 10:33:22;;;;;;;3.80;1.40;;;14.50;99.90;;;;;;5053904;28;20852;-49
2021/05/06 10:35:48;;;;;;;4.70;1.40;;;14.40;99.90;;;;;;5054343;28;20957;-49
2021/05/06 10:38:16;;;;;;;2.90;1.10;;;14.10;99.90;;;;;;5053752;28;20479;-49
2021/05/06 10:40:42;;;;;;;1.33;1.23;;;14.00;99.90;;;;;;5054316;28;20462;-49
2021/05/06 10:43:25;;;;;;;2.17;1.30;;;13.40;99.90;;;;;;5054600;28;20480;-49
2021/05/06 10:46:00;;;;;;;3.03;1.07;;;13.10;99.90;;;;;;5054495;28;20447;-50
2021/05/06 10:49:02;;;;;;;2.73;1.20;;;12.70;99.90;;;;;;5054655;28;20447;-50
2021/05/06 10:51:39;;;;;;;2.17;1.30;;;12.40;99.90;;;;;;5054111;28;20450;-50
2021/05/06 10:54:27;;;;;;;3.50;1.27;;;12.30;99.90;;;;;;5054561;28;20483;-50
2021/05/06 10:56:54;;;;;;;2.70;1.47;;;12.20;99.90;;;;;;5054308;28;20509;-49
2021/05/06 10:59:23;;;;;;;2.17;1.13;;;12.10;99.90;;;;;;5054253;28;20538;-50
2021/05/06 11:01:49;;;;;;;3.70;1.77;;;12.00;99.90;;;;;;5054056;28;20471;-50
2021/05/06 11:04:16;;;;;;;2.47;2.07;;;12.10;99.90;;;;;;5054229;28;20455;-48
2021/05/06 11:06:45;;;;;;;2.10;1.37;;;12.30;99.90;;;;;;5054184;28;20538;-50
2021/05/06 11:10:01;;;;;;;3.83;1.30;;;12.10;99.90;;;;;;5054015;28;20467;-50
2021/05/06 11:12:32;;;;;;;3.77;1.20;;;12.30;99.90;;;;;;5053259;28;20739;-49
2021/05/06 11:15:27;;;;;;;1.40;1.10;;;12.50;99.90;;;;;;5045898;28;20447;-49
2021/05/06 11:17:55;;;;;;;2.60;1.13;;;12.50;99.90;;;;;;5053951;28;20479;-50
2021/05/06 11:20:45;;;;;;;2.70;1.10;;;12.10;99.90;;;;;;5054292;28;21138;-50
2021/05/06 11:23:20;;;;;;;2.67;1.10;;;12.00;99.90;;;;;;5053631;28;20479;-50
2021/05/06 11:25:51;;;;;;;2.60;1.70;;;12.00;99.90;;;;;;5052677;28;20447;-50
2021/05/06 11:28:49;;;;;;;3.53;1.23;;;11.90;99.90;;;;;;5053834;28;20448;-50
2021/05/06 11:31:36;;;;;;;2.70;1.40;;;11.90;99.90;;;;;;5053873;28;20451;-49
2021/05/06 11:34:35;;;;;;;2.73;1.43;;;11.90;99.90;;;;;;5052616;28;20449;-50
2021/05/06 11:37:17;;;;;;;1.43;1.23;;;11.90;99.90;;;;;;5053432;28;20476;-49
2021/05/06 11:39:54;;;;;;;2.83;1.20;;;11.90;99.90;;;;;;5053501;28;20475;-49
2021/05/06 11:42:22;;;;;;;3.50;1.30;;;11.80;99.90;;;;;;5053258;28;20993;-49
2021/05/06 11:45:08;;;;;;;1.40;1.30;;;11.70;99.90;;;;;;5052747;28;20452;-50
2021/05/06 11:47:36;;;;;;;2.27;1.43;;;11.90;99.90;;;;;;5053330;28;20447;-49
2021/05/06 11:50:18;;;;;;;3.03;1.30;;;11.90;99.90;;;;;;5053835;28;20451;-50
2021/05/06 11:52:45;;;;;;;4.50;1.57;;;11.80;99.90;;;;;;5052639;28;20475;-50
2021/05/06 11:55:36;;;;;;;2.60;1.30;;;11.60;99.90;;;;;;5053145;28;20452;-50
2021/05/06 11:58:03;;;;;;;3.83;1.60;;;11.50;99.90;;;;;;5053428;28;20586;-50
2021/05/06 12:00:31;;;;;;;4.70;1.57;;;11.60;99.90;;;;;;5052751;28;20448;-50
2021/05/06 12:03:00;;;;;;;4.30;1.90;;;11.70;99.90;;;;;;5052986;28;20475;-50
2021/05/06 12:05:48;;;;;;;4.27;1.80;;;11.80;99.90;;;;;;5052798;28;20452;-50
2021/05/06 12:08:15;;;;;;;1.97;1.70;;;11.60;99.90;;;;;;5053239;28;20802;-50
2021/05/06 12:10:42;;;;;;;3.83;2.10;;;11.80;99.90;;;;;;5052906;28;20444;-50
2021/05/06 12:13:09;;;;;;;5.27;1.70;;;11.90;99.90;;;;;;5052629;28;20475;-49
2021/05/06 12:15:36;;;;;;;1.93;1.63;;;11.60;99.90;;;;;;5052732;28;20454;-50
2021/05/06 12:18:23;;;;;;;3.87;1.53;;;11.70;99.90;;;;;;5052855;28;20483;-50
2021/05/06 12:20:55;;;;;;;3.63;1.70;;;11.20;99.90;;;;;;5052700;28;20452;-50
2021/05/06 12:23:22;;;;;;;5.83;1.80;;;11.20;99.90;;;;;;5051694;28;20464;-53
2021/05/06 12:25:49;;;;;;;3.73;1.93;;;11.50;99.90;;;;;;5052515;28;20554;-50
2021/05/06 12:28:16;;;;;;;2.10;1.77;;;11.30;99.90;;;;;;5052779;28;20455;-50
2021/05/06 12:30:43;;;;;;;3.00;1.40;;;11.30;99.90;;;;;;5052444;28;20452;-50
2021/05/06 12:33:10;;;;;;;3.60;1.90;;;11.60;99.90;;;;;;5052237;28;20474;-50
2021/05/06 12:35:50;;;;;;;3.00;1.90;;;11.70;99.90;;;;;;5052533;28;20452;-50
2021/05/06 12:38:18;;;;;;;4.30;1.93;;;11.80;99.90;;;;;;5052504;28;20479;-50
2021/05/06 12:40:45;;;;;;;1.80;1.70;;;12.00;99.90;;;;;;5052051;28;20834;-50
2021/05/06 12:43:23;;;;;;;2.50;1.43;;;11.80;99.90;;;;;;5052098;28;20468;-51
2021/05/06 12:45:58;;;;;;;2.40;1.73;;;11.80;99.90;;;;;;5051172;28;20447;-51
2021/05/06 12:48:36;;;;;;;2.60;1.63;;;11.50;99.90;;;;;;5052429;28;20446;-50
2021/05/06 12:51:04;;;;;;;2.67;1.80;;;11.10;99.90;;;;;;5052027;28;20527;-50
2021/05/06 12:53:30;;;;;;;3.80;2.13;;;11.30;99.90;;;;;;5051790;28;20464;-51
2021/05/06 12:55:57;;;;;;;5.80;2.90;;;11.40;99.90;;;;;;5051763;28;20443;-50
2021/05/06 12:58:27;;;;;;;5.80;2.30;;;11.40;99.90;;;;;;5052003;28;20537;-50
2021/05/06 13:01:13;;;;;;;7.77;2.93;;;11.50;99.90;;;;;;5051434;28;20447;-51
2021/05/06 13:03:43;;;;;;;3.33;1.67;;;11.50;99.90;;;;;;5051154;28;20856;-50
2021/05/06 13:06:13;;;;;;;2.37;2.10;;;11.50;99.90;;;;;;5052202;28;20521;-49
2021/05/06 13:08:41;;;;;;;3.43;1.87;;;11.60;99.90;;;;;;5052220;28;20487;-50
2021/05/06 13:11:09;;;;;;;4.27;2.10;;;11.50;99.90;;;;;;5052322;28;20444;-49
2021/05/06 13:13:39;;;;;;;3.07;1.90;;;11.60;99.90;;;;;;5051526;28;20490;-50
2021/05/06 13:16:05;;;;;;;2.27;2.10;;;11.60;99.90;;;;;;5051971;28;20455;-50
2021/05/06 13:18:33;;;;;;;2.63;2.13;;;11.40;99.90;;;;;;5051901;28;20540;-50
2021/05/06 13:20:59;;;;;;;2.33;2.00;;;11.00;99.90;;;;;;5051899;28;20447;-50
2021/05/06 13:23:29;;;;;;;2.50;2.30;;;10.70;99.90;;;;;;5051817;28;20468;-50
2021/05/06 13:25:57;;;;;;;4.50;2.27;;;10.30;99.90;;;;;;5050695;28;20448;-50
2021/05/06 13:28:43;;;;;;;3.23;2.80;;;10.40;99.90;;;;;;5051995;28;20443;-49
2021/05/06 13:31:12;;;;;;;4.30;2.17;;;10.10;99.90;;;;;;5051647;28;20806;-50
2021/05/06 13:33:40;;;;;;;2.93;2.53;;;10.30;99.90;;;;;;5051413;28;20555;-50
2021/05/06 13:36:08;;;;;;;5.00;2.63;;;10.00;99.90;;;;;;5051662;28;20447;-49
2021/05/06 13:39:06;;;;;;;7.33;2.30;;;10.00;99.90;;;;;;5051272;28;20479;-49
2021/05/06 13:41:34;;;;;;;5.83;2.90;;;10.00;99.90;;;;;;4951241;29;20468;-49
2021/05/06 13:44:02;;;;;;;3.13;2.83;;;9.50;99.90;;;;;;5023029;28;20451;-49
2021/05/06 13:46:30;;;;;;;3.90;2.80;;;9.50;99.90;;;;;;5051532;28;20451;-50
2021/05/06 13:48:58;;;;;;;6.90;3.30;;;9.40;99.90;;;;;;5051096;28;20821;-49
2021/05/06 13:51:25;;;;;;;7.53;4.17;;;9.30;99.90;;;;;;5051586;28;20454;-49
2021/05/06 13:53:52;;;;;;;6.60;3.43;;;9.60;99.90;;;;;;5051204;28;20451;-49
2021/05/06 13:56:20;;;;;;;5.10;3.17;;;9.40;99.90;;;;;;5050522;28;20458;-49
2021/05/06 13:58:49;;;;;;;9.53;3.00;;;9.40;99.90;;;;;;5051657;28;20450;-49
2021/05/06 14:01:17;;;;;;;6.23;3.70;;;9.50;99.90;;;;;;5051354;28;20447;-49
2021/05/06 14:03:43;;;;;;;4.33;3.57;;;9.50;99.90;;;;;;5051233;28;20476;-49
2021/05/06 14:06:10;;;;;;;4.33;2.80;;;9.60;99.90;;;;;;5050883;28;20801;-49
2021/05/06 14:08:37;;;;;;;15.73;4.70;;;9.60;99.90;;;;;;5051401;28;20447;-49
2021/05/06 14:11:04;;;;;;;6.27;3.60;;;9.40;99.90;;;;;;5050929;28;21010;-50
2021/05/06 14:13:32;;;;;;;7.00;3.40;;;9.50;99.90;;;;;;5050825;28;20475;-49
2021/05/06 14:16:00;;;;;;;6.80;4.20;;;9.40;99.90;;;;;;5050958;28;20455;-50
2021/05/06 14:18:26;;;;;;;5.70;3.90;;;9.30;99.90;;;;;;5051367;28;20487;-49
2021/05/06 14:20:59;;;;;;;9.07;4.40;;;9.20;99.90;;;;;;5051227;28;20941;-50
2021/05/06 14:23:25;;;;;;;4.53;3.47;;;9.20;99.90;;;;;;5050565;28;20491;-49
2021/05/06 14:25:52;;;;;;;8.10;3.97;;;9.10;99.90;;;;;;5051171;28;20451;-49
2021/05/06 14:28:18;;;;;;;9.90;4.60;;;8.90;99.90;;;;;;5051357;28;20448;-49
2021/05/06 14:30:46;;;;;;;7.17;4.40;;;8.80;99.90;;;;;;5051136;28;20961;-49
2021/05/06 14:33:12;;;;;;;7.53;4.87;;;8.80;99.90;;;;;;5050872;28;20468;-49
2021/05/06 14:35:39;;;;;;;6.50;4.23;;;8.80;99.90;;;;;;5049543;28;20451;-49
2021/05/06 14:38:08;;;;;;;8.63;4.00;;;8.80;99.90;;;;;;5050732;28;20507;-48
2021/05/06 14:40:35;;;;;;;7.27;4.80;;;8.60;99.90;;;;;;5051206;28;20536;-49
2021/05/06 14:43:01;;;;;;;8.27;4.33;;;8.60;99.90;;;;;;5050815;28;20522;-49
2021/05/06 14:45:28;;;;;;;6.87;5.07;;;8.60;99.90;;;;;;5050584;28;20452;-50
2021/05/06 14:47:55;;;;;;;11.03;4.63;;;8.60;99.90;;;;;;5051047;28;21188;-49
2021/05/06 14:50:21;;;;;;;4.93;3.53;;;8.60;99.90;;;;;;5050635;28;20952;-49
2021/05/06 14:52:51;;;;;;;6.23;3.90;;;8.60;99.90;;;;;;5050885;28;20478;-49
2021/05/06 14:55:17;;;;;;;5.50;3.83;;;8.60;99.90;;;;;;5050394;28;20470;-49
2021/05/06 14:57:44;;;;;;;5.37;3.80;;;8.60;99.90;;;;;;5050858;28;20483;-50
2021/05/06 15:00:11;;;;;;;4.83;3.77;;;8.80;99.90;;;;;;5050779;28;20458;-50
2021/05/06 15:02:38;;;;;;;8.20;4.70;;;8.80;99.90;;;;;;5050831;28;20467;-50
2021/05/06 15:05:06;;;;;;;6.90;4.27;;;8.90;99.90;;;;;;5050299;28;20456;-49
2021/05/06 15:07:33;;;;;;;4.67;4.13;;;8.90;99.90;;;;;;5051105;28;20494;-50
2021/05/06 15:09:59;;;;;;;7.27;4.27;;;8.80;99.90;;;;;;5053000;28;20855;-49
2021/05/06 15:12:26;;;;;;;4.60;3.90;;;8.60;99.90;;;;;;5054079;28;20479;-50
2021/05/06 15:14:52;;;;;;;4.80;4.30;;;8.80;99.90;;;;;;5053347;28;20451;-49
2021/05/06 15:17:19;;;;;;;5.70;4.47;;;8.90;99.90;;;;;;5054218;28;20486;-50
2021/05/06 15:19:45;;;;;;;6.03;4.70;;;8.90;99.90;;;;;;5053871;28;20451;-49
2021/05/06 15:22:13;;;;;;;17.80;9.80;;;8.90;99.90;;;;;;5054236;28;20506;-50
2021/05/06 15:24:39;;;;;;;7.50;5.37;;;9.00;99.90;;;;;;5053457;28;21001;-49
2021/05/06 15:27:06;;;;;;;12.30;6.00;;;9.20;99.90;;;;;;5053404;28;20475;-50
2021/05/06 15:29:33;;;;;;;9.33;5.00;;;9.30;99.90;;;;;;5053723;28;20802;-50
2021/05/06 15:32:00;;;;;;;6.57;5.00;;;9.40;99.90;;;;;;5034107;28;20480;-50
2021/05/06 15:34:27;;;;;;;9.43;5.30;;;9.30;99.90;;;;;;5042014;28;20454;-50
2021/05/06 15:36:53;;;;;;;21.47;11.87;;;9.40;99.90;;;;;;5053902;28;20566;-50
2021/05/06 15:39:21;;;;;;;6.30;4.90;;;9.50;99.90;;;;;;5053965;28;20455;-50
2021/05/06 15:41:47;;;;;;;9.20;5.47;;;9.40;99.90;;;;;;5053532;28;20494;-50
2021/05/06 15:44:13;;;;;;;13.00;7.80;;;9.40;99.90;;;;;;5053483;28;20463;-50
2021/05/06 15:46:40;;;;;;;11.50;7.53;;;9.50;99.90;;;;;;5053486;28;20456;-49
2021/05/06 15:49:07;;;;;;;4.07;3.17;;;9.70;99.90;;;;;;5053941;28;20451;-50
2021/05/06 15:51:34;;;;;;;3.97;3.40;;;9.50;99.90;;;;;;5053296;28;20503;-49
2021/05/06 15:54:01;;;;;;;5.17;3.80;;;9.60;99.90;;;;;;5053331;28;20521;-50
2021/05/06 15:56:28;;;;;;;10.17;4.33;;;9.70;99.90;;;;;;5053485;28;20929;-50